sensor_id;sensor_type;location;lat;lon;timestamp;P1;durP1;ratioP1;P2;durP2;ratioP2
31782;SDS011;18351;47.560;9.708;2023-05-07T00:00:20;3.15;;;2.60;;
31782;SDS011;18351;47.560;9.708;2023-05-07T00:02:46;2.38;;;2.03;;
31782;SDS011;18351;47.560;9.708;2023-05-07T00:05:12;4.13;;;2.08;;
31782;SDS011;18351;47.560;9.708;2023-05-07T00:07:37;3.20;;;2.42;;
31782;SDS011;18351;47.560;9.708;2023-05-07T00:10:03;6.05;;;2.40;;
31782;SDS011;18351;47.560;9.708;2023-05-07T00:12:31;2.80;;;2.22;;
31782;SDS011;18351;47.560;9.708;2023-05-07T00:14:58;3.45;;;2.30;;
31782;SDS011;18351;47.560;9.708;2023-05-07T00:17:24;3.63;;;2.75;;
31782;SDS011;18351;47.560;9.708;2023-05-07T00:19:50;2.30;;;2.10;;
31782;SDS011;18351;47.560;9.708;2023-05-07T00:22:15;4.43;;;2.25;;
31782;SDS011;18351;47.560;9.708;2023-05-07T00:24:41;2.17;;;1.98;;
31782;SDS011;18351;47.560;9.708;2023-05-07T00:27:07;2.72;;;2.25;;
31782;SDS011;18351;47.560;9.708;2023-05-07T00:29:32;6.88;;;1.92;;
31782;SDS011;18351;47.560;9.708;2023-05-07T00:31:58;4.22;;;2.63;;
31782;SDS011;18351;47.560;9.708;2023-05-07T00:34:24;3.42;;;2.53;;
31782;SDS011;18351;47.560;9.708;2023-05-07T00:36:49;5.28;;;2.00;;
31782;SDS011;18351;47.560;9.708;2023-05-07T00:39:15;6.70;;;2.50;;
31782;SDS011;18351;47.560;9.708;2023-05-07T00:41:40;5.30;;;2.35;;
31782;SDS011;18351;47.560;9.708;2023-05-07T00:44:06;3.80;;;2.33;;
31782;SDS011;18351;47.560;9.708;2023-05-07T00:46:31;2.97;;;2.20;;
31782;SDS011;18351;47.560;9.708;2023-05-07T00:48:57;5.43;;;2.10;;
31782;SDS011;18351;47.560;9.708;2023-05-07T00:51:24;4.03;;;2.30;;
31782;SDS011;18351;47.560;9.708;2023-05-07T00:53:51;4.45;;;2.00;;
31782;SDS011;18351;47.560;9.708;2023-05-07T00:56:18;2.33;;;2.05;;
31782;SDS011;18351;47.560;9.708;2023-05-07T00:58:46;2.13;;;1.65;;
31782;SDS011;18351;47.560;9.708;2023-05-07T01:01:12;4.00;;;2.33;;
31782;SDS011;18351;47.560;9.708;2023-05-07T01:03:37;2.83;;;2.30;;
31782;SDS011;18351;47.560;9.708;2023-05-07T01:06:03;3.53;;;2.40;;
31782;SDS011;18351;47.560;9.708;2023-05-07T01:08:30;3.20;;;2.60;;
31782;SDS011;18351;47.560;9.708;2023-05-07T01:10:57;4.20;;;2.22;;
31782;SDS011;18351;47.560;9.708;2023-05-07T01:13:23;2.83;;;2.00;;
31782;SDS011;18351;47.560;9.708;2023-05-07T01:15:49;9.65;;;2.20;;
31782;SDS011;18351;47.560;9.708;2023-05-07T01:18:15;3.40;;;2.20;;
31782;SDS011;18351;47.560;9.708;2023-05-07T01:20:41;4.10;;;2.17;;
31782;SDS011;18351;47.560;9.708;2023-05-07T01:23:07;3.72;;;2.10;;
31782;SDS011;18351;47.560;9.708;2023-05-07T01:25:33;6.00;;;2.70;;
31782;SDS011;18351;47.560;9.708;2023-05-07T01:27:59;4.53;;;2.58;;
31782;SDS011;18351;47.560;9.708;2023-05-07T01:30:26;4.22;;;2.45;;
31782;SDS011;18351;47.560;9.708;2023-05-07T01:32:57;4.95;;;2.75;;
31782;SDS011;18351;47.560;9.708;2023-05-07T01:35:30;3.15;;;2.65;;
31782;SDS011;18351;47.560;9.708;2023-05-07T01:38:01;4.63;;;3.25;;
31782;SDS011;18351;47.560;9.708;2023-05-07T01:40:29;4.68;;;3.00;;
31782;SDS011;18351;47.560;9.708;2023-05-07T01:42:55;3.17;;;2.80;;
31782;SDS011;18351;47.560;9.708;2023-05-07T01:45:21;4.20;;;2.72;;
31782;SDS011;18351;47.560;9.708;2023-05-07T01:47:47;4.47;;;2.25;;
31782;SDS011;18351;47.560;9.708;2023-05-07T01:50:14;2.88;;;2.47;;
31782;SDS011;18351;47.560;9.708;2023-05-07T01:52:43;8.02;;;2.72;;
31782;SDS011;18351;47.560;9.708;2023-05-07T01:55:08;3.92;;;2.67;;
31782;SDS011;18351;47.560;9.708;2023-05-07T01:57:34;3.15;;;2.30;;
31782;SDS011;18351;47.560;9.708;2023-05-07T02:00:00;2.40;;;2.17;;
31782;SDS011;18351;47.560;9.708;2023-05-07T02:02:31;4.80;;;2.78;;
31782;SDS011;18351;47.560;9.708;2023-05-07T02:04:56;4.43;;;2.40;;
31782;SDS011;18351;47.560;9.708;2023-05-07T02:07:22;3.70;;;2.47;;
31782;SDS011;18351;47.560;9.708;2023-05-07T02:09:47;6.28;;;2.60;;
31782;SDS011;18351;47.560;9.708;2023-05-07T02:12:13;9.60;;;3.15;;
31782;SDS011;18351;47.560;9.708;2023-05-07T02:14:38;7.20;;;2.80;;
31782;SDS011;18351;47.560;9.708;2023-05-07T02:17:04;3.63;;;2.50;;
31782;SDS011;18351;47.560;9.708;2023-05-07T02:19:29;2.78;;;2.47;;
31782;SDS011;18351;47.560;9.708;2023-05-07T02:21:55;2.88;;;2.50;;
31782;SDS011;18351;47.560;9.708;2023-05-07T02:24:21;4.63;;;2.65;;
31782;SDS011;18351;47.560;9.708;2023-05-07T02:26:46;3.40;;;2.72;;
31782;SDS011;18351;47.560;9.708;2023-05-07T02:29:12;3.45;;;2.22;;
31782;SDS011;18351;47.560;9.708;2023-05-07T02:31:37;2.72;;;2.40;;
31782;SDS011;18351;47.560;9.708;2023-05-07T02:34:03;5.15;;;2.60;;
31782;SDS011;18351;47.560;9.708;2023-05-07T02:36:28;3.05;;;2.10;;
31782;SDS011;18351;47.560;9.708;2023-05-07T02:38:54;3.08;;;2.53;;
31782;SDS011;18351;47.560;9.708;2023-05-07T02:41:20;3.72;;;2.28;;
31782;SDS011;18351;47.560;9.708;2023-05-07T02:43:45;2.75;;;2.50;;
31782;SDS011;18351;47.560;9.708;2023-05-07T02:46:11;6.55;;;2.42;;
31782;SDS011;18351;47.560;9.708;2023-05-07T02:48:36;3.78;;;2.60;;
31782;SDS011;18351;47.560;9.708;2023-05-07T02:51:02;3.20;;;2.50;;
31782;SDS011;18351;47.560;9.708;2023-05-07T02:53:28;4.60;;;2.80;;
31782;SDS011;18351;47.560;9.708;2023-05-07T02:55:57;3.78;;;2.58;;
31782;SDS011;18351;47.560;9.708;2023-05-07T02:58:24;3.03;;;2.45;;
31782;SDS011;18351;47.560;9.708;2023-05-07T03:00:49;5.70;;;2.70;;
31782;SDS011;18351;47.560;9.708;2023-05-07T03:03:15;3.30;;;2.63;;
31782;SDS011;18351;47.560;9.708;2023-05-07T03:05:41;5.63;;;2.70;;
31782;SDS011;18351;47.560;9.708;2023-05-07T03:08:07;4.00;;;2.50;;
31782;SDS011;18351;47.560;9.708;2023-05-07T03:10:33;4.70;;;2.65;;
31782;SDS011;18351;47.560;9.708;2023-05-07T03:12:58;2.42;;;2.22;;
31782;SDS011;18351;47.560;9.708;2023-05-07T03:15:24;3.33;;;2.45;;
31782;SDS011;18351;47.560;9.708;2023-05-07T03:17:50;3.58;;;2.47;;
31782;SDS011;18351;47.560;9.708;2023-05-07T03:20:15;4.57;;;2.70;;
31782;SDS011;18351;47.560;9.708;2023-05-07T03:22:41;4.35;;;3.05;;
31782;SDS011;18351;47.560;9.708;2023-05-07T03:25:07;7.22;;;2.83;;
31782;SDS011;18351;47.560;9.708;2023-05-07T03:27:33;3.45;;;2.45;;
31782;SDS011;18351;47.560;9.708;2023-05-07T03:29:59;3.38;;;2.50;;
31782;SDS011;18351;47.560;9.708;2023-05-07T03:32:25;4.75;;;2.60;;
31782;SDS011;18351;47.560;9.708;2023-05-07T03:34:50;2.97;;;2.67;;
31782;SDS011;18351;47.560;9.708;2023-05-07T03:37:16;2.88;;;2.35;;
31782;SDS011;18351;47.560;9.708;2023-05-07T03:39:42;2.65;;;2.42;;
31782;SDS011;18351;47.560;9.708;2023-05-07T03:42:07;3.22;;;2.20;;
31782;SDS011;18351;47.560;9.708;2023-05-07T03:44:33;2.65;;;2.42;;
31782;SDS011;18351;47.560;9.708;2023-05-07T03:46:58;3.85;;;2.65;;
31782;SDS011;18351;47.560;9.708;2023-05-07T03:49:24;4.45;;;3.00;;
31782;SDS011;18351;47.560;9.708;2023-05-07T03:51:49;9.63;;;2.70;;
31782;SDS011;18351;47.560;9.708;2023-05-07T03:54:15;5.93;;;2.50;;
31782;SDS011;18351;47.560;9.708;2023-05-07T03:56:41;4.78;;;3.20;;
31782;SDS011;18351;47.560;9.708;2023-05-07T03:59:06;4.97;;;2.83;;
31782;SDS011;18351;47.560;9.708;2023-05-07T04:01:32;5.65;;;3.10;;
31782;SDS011;18351;47.560;9.708;2023-05-07T04:03:57;3.00;;;2.35;;
31782;SDS011;18351;47.560;9.708;2023-05-07T04:06:23;3.00;;;2.70;;
31782;SDS011;18351;47.560;9.708;2023-05-07T04:08:49;4.45;;;2.70;;
31782;SDS011;18351;47.560;9.708;2023-05-07T04:11:14;2.70;;;2.50;;
31782;SDS011;18351;47.560;9.708;2023-05-07T04:13:40;5.47;;;2.35;;
31782;SDS011;18351;47.560;9.708;2023-05-07T04:16:06;3.70;;;2.70;;
31782;SDS011;18351;47.560;9.708;2023-05-07T04:18:31;4.03;;;2.60;;
31782;SDS011;18351;47.560;9.708;2023-05-07T04:20:57;5.53;;;2.60;;
31782;SDS011;18351;47.560;9.708;2023-05-07T04:23:22;4.28;;;2.95;;
31782;SDS011;18351;47.560;9.708;2023-05-07T04:25:48;6.38;;;2.60;;
31782;SDS011;18351;47.560;9.708;2023-05-07T04:28:13;4.13;;;2.80;;
31782;SDS011;18351;47.560;9.708;2023-05-07T04:30:39;7.00;;;3.28;;
31782;SDS011;18351;47.560;9.708;2023-05-07T04:33:06;5.25;;;3.05;;
31782;SDS011;18351;47.560;9.708;2023-05-07T04:35:32;3.55;;;3.22;;
31782;SDS011;18351;47.560;9.708;2023-05-07T04:37:57;4.95;;;3.42;;
31782;SDS011;18351;47.560;9.708;2023-05-07T04:40:23;6.90;;;3.28;;
31782;SDS011;18351;47.560;9.708;2023-05-07T04:42:49;4.78;;;2.92;;
31782;SDS011;18351;47.560;9.708;2023-05-07T04:45:14;4.72;;;2.85;;
31782;SDS011;18351;47.560;9.708;2023-05-07T04:47:40;6.38;;;2.65;;
31782;SDS011;18351;47.560;9.708;2023-05-07T04:50:06;2.63;;;2.35;;
31782;SDS011;18351;47.560;9.708;2023-05-07T04:52:33;6.47;;;2.45;;
31782;SDS011;18351;47.560;9.708;2023-05-07T04:54:59;3.55;;;2.40;;
31782;SDS011;18351;47.560;9.708;2023-05-07T04:57:25;3.47;;;2.63;;
31782;SDS011;18351;47.560;9.708;2023-05-07T04:59:52;3.65;;;2.55;;
31782;SDS011;18351;47.560;9.708;2023-05-07T05:02:18;2.72;;;2.15;;
31782;SDS011;18351;47.560;9.708;2023-05-07T05:04:43;3.28;;;2.20;;
31782;SDS011;18351;47.560;9.708;2023-05-07T05:07:09;3.30;;;2.25;;
31782;SDS011;18351;47.560;9.708;2023-05-07T05:09:35;2.60;;;2.40;;
31782;SDS011;18351;47.560;9.708;2023-05-07T05:12:00;3.17;;;1.75;;
31782;SDS011;18351;47.560;9.708;2023-05-07T05:14:26;4.10;;;2.15;;
31782;SDS011;18351;47.560;9.708;2023-05-07T05:16:51;2.35;;;2.08;;
31782;SDS011;18351;47.560;9.708;2023-05-07T05:19:17;4.18;;;2.33;;
31782;SDS011;18351;47.560;9.708;2023-05-07T05:21:43;2.35;;;1.80;;
31782;SDS011;18351;47.560;9.708;2023-05-07T05:24:08;2.30;;;2.03;;
31782;SDS011;18351;47.560;9.708;2023-05-07T05:26:34;4.40;;;2.08;;
31782;SDS011;18351;47.560;9.708;2023-05-07T05:28:59;2.22;;;1.98;;
31782;SDS011;18351;47.560;9.708;2023-05-07T05:31:25;4.28;;;2.05;;
31782;SDS011;18351;47.560;9.708;2023-05-07T05:33:50;2.08;;;1.88;;
31782;SDS011;18351;47.560;9.708;2023-05-07T05:36:16;4.00;;;1.50;;
31782;SDS011;18351;47.560;9.708;2023-05-07T05:38:42;1.40;;;1.30;;
31782;SDS011;18351;47.560;9.708;2023-05-07T05:41:08;1.85;;;1.58;;
31782;SDS011;18351;47.560;9.708;2023-05-07T05:43:34;3.22;;;1.50;;
31782;SDS011;18351;47.560;9.708;2023-05-07T05:46:00;2.63;;;1.25;;
31782;SDS011;18351;47.560;9.708;2023-05-07T05:48:25;2.08;;;1.30;;
31782;SDS011;18351;47.560;9.708;2023-05-07T05:50:51;1.30;;;1.20;;
31782;SDS011;18351;47.560;9.708;2023-05-07T05:53:17;1.55;;;1.33;;
31782;SDS011;18351;47.560;9.708;2023-05-07T05:55:42;2.55;;;1.50;;
31782;SDS011;18351;47.560;9.708;2023-05-07T05:58:08;1.88;;;1.42;;
31782;SDS011;18351;47.560;9.708;2023-05-07T06:00:34;2.22;;;1.35;;
31782;SDS011;18351;47.560;9.708;2023-05-07T06:03:00;2.88;;;1.48;;
31782;SDS011;18351;47.560;9.708;2023-05-07T06:05:25;2.72;;;1.52;;
31782;SDS011;18351;47.560;9.708;2023-05-07T06:07:51;1.77;;;1.40;;
31782;SDS011;18351;47.560;9.708;2023-05-07T06:10:16;2.35;;;1.30;;
31782;SDS011;18351;47.560;9.708;2023-05-07T06:12:42;1.70;;;1.33;;
31782;SDS011;18351;47.560;9.708;2023-05-07T06:15:08;2.58;;;1.55;;
31782;SDS011;18351;47.560;9.708;2023-05-07T06:17:33;5.05;;;1.50;;
31782;SDS011;18351;47.560;9.708;2023-05-07T06:19:59;2.70;;;1.75;;
31782;SDS011;18351;47.560;9.708;2023-05-07T06:22:24;2.50;;;1.85;;
31782;SDS011;18351;47.560;9.708;2023-05-07T06:24:50;2.08;;;1.58;;
31782;SDS011;18351;47.560;9.708;2023-05-07T06:27:16;4.55;;;1.67;;
31782;SDS011;18351;47.560;9.708;2023-05-07T06:29:41;2.30;;;1.38;;
31782;SDS011;18351;47.560;9.708;2023-05-07T06:32:07;2.03;;;1.50;;
31782;SDS011;18351;47.560;9.708;2023-05-07T06:34:37;2.03;;;1.60;;
31782;SDS011;18351;47.560;9.708;2023-05-07T06:37:03;3.28;;;1.80;;
31782;SDS011;18351;47.560;9.708;2023-05-07T06:39:29;2.47;;;1.85;;
31782;SDS011;18351;47.560;9.708;2023-05-07T06:41:54;4.60;;;1.55;;
31782;SDS011;18351;47.560;9.708;2023-05-07T06:44:20;7.82;;;1.70;;
31782;SDS011;18351;47.560;9.708;2023-05-07T06:46:46;3.70;;;1.60;;
31782;SDS011;18351;47.560;9.708;2023-05-07T06:49:12;2.38;;;1.50;;
31782;SDS011;18351;47.560;9.708;2023-05-07T06:51:38;1.73;;;1.30;;
31782;SDS011;18351;47.560;9.708;2023-05-07T06:54:03;4.07;;;1.30;;
31782;SDS011;18351;47.560;9.708;2023-05-07T06:56:29;4.15;;;1.52;;
31782;SDS011;18351;47.560;9.708;2023-05-07T06:58:55;1.52;;;1.38;;
31782;SDS011;18351;47.560;9.708;2023-05-07T07:01:21;3.60;;;1.40;;
31782;SDS011;18351;47.560;9.708;2023-05-07T07:03:46;2.95;;;1.48;;
31782;SDS011;18351;47.560;9.708;2023-05-07T07:06:12;2.45;;;1.65;;
31782;SDS011;18351;47.560;9.708;2023-05-07T07:08:38;3.92;;;1.80;;
31782;SDS011;18351;47.560;9.708;2023-05-07T07:11:04;8.57;;;1.65;;
31782;SDS011;18351;47.560;9.708;2023-05-07T07:13:30;1.65;;;1.55;;
31782;SDS011;18351;47.560;9.708;2023-05-07T07:15:55;2.35;;;1.60;;
31782;SDS011;18351;47.560;9.708;2023-05-07T07:18:21;2.17;;;1.50;;
31782;SDS011;18351;47.560;9.708;2023-05-07T07:20:47;2.88;;;1.80;;
31782;SDS011;18351;47.560;9.708;2023-05-07T07:23:12;5.13;;;1.42;;
31782;SDS011;18351;47.560;9.708;2023-05-07T07:25:38;3.25;;;1.50;;
31782;SDS011;18351;47.560;9.708;2023-05-07T07:28:04;3.22;;;1.15;;
31782;SDS011;18351;47.560;9.708;2023-05-07T07:30:30;1.38;;;1.27;;
31782;SDS011;18351;47.560;9.708;2023-05-07T07:32:56;5.80;;;1.50;;
31782;SDS011;18351;47.560;9.708;2023-05-07T07:35:27;3.15;;;2.08;;
31782;SDS011;18351;47.560;9.708;2023-05-07T07:37:58;1.70;;;1.60;;
31782;SDS011;18351;47.560;9.708;2023-05-07T07:40:24;4.05;;;1.75;;
31782;SDS011;18351;47.560;9.708;2023-05-07T07:42:51;3.17;;;1.75;;
31782;SDS011;18351;47.560;9.708;2023-05-07T07:45:16;3.85;;;1.90;;
31782;SDS011;18351;47.560;9.708;2023-05-07T07:47:42;4.07;;;1.80;;
31782;SDS011;18351;47.560;9.708;2023-05-07T07:50:08;2.42;;;1.50;;
31782;SDS011;18351;47.560;9.708;2023-05-07T07:52:34;1.88;;;1.35;;
31782;SDS011;18351;47.560;9.708;2023-05-07T07:54:59;3.50;;;1.67;;
31782;SDS011;18351;47.560;9.708;2023-05-07T07:57:25;2.85;;;2.00;;
31782;SDS011;18351;47.560;9.708;2023-05-07T07:59:51;3.10;;;2.00;;
31782;SDS011;18351;47.560;9.708;2023-05-07T08:02:17;5.40;;;1.77;;
31782;SDS011;18351;47.560;9.708;2023-05-07T08:04:43;4.70;;;1.98;;
31782;SDS011;18351;47.560;9.708;2023-05-07T08:07:09;12.55;;;1.85;;
31782;SDS011;18351;47.560;9.708;2023-05-07T08:09:35;3.25;;;1.90;;
31782;SDS011;18351;47.560;9.708;2023-05-07T08:12:07;4.20;;;2.30;;
31782;SDS011;18351;47.560;9.708;2023-05-07T08:14:33;5.70;;;2.47;;
31782;SDS011;18351;47.560;9.708;2023-05-07T08:16:59;2.47;;;2.13;;
31782;SDS011;18351;47.560;9.708;2023-05-07T08:19:25;2.50;;;2.30;;
31782;SDS011;18351;47.560;9.708;2023-05-07T08:21:50;2.28;;;2.08;;
31782;SDS011;18351;47.560;9.708;2023-05-07T08:24:16;3.08;;;2.22;;
31782;SDS011;18351;47.560;9.708;2023-05-07T08:26:43;4.65;;;2.83;;
31782;SDS011;18351;47.560;9.708;2023-05-07T08:29:09;3.38;;;2.20;;
31782;SDS011;18351;47.560;9.708;2023-05-07T08:31:35;4.80;;;2.65;;
31782;SDS011;18351;47.560;9.708;2023-05-07T08:34:00;5.38;;;2.45;;
31782;SDS011;18351;47.560;9.708;2023-05-07T08:36:26;3.08;;;2.78;;
31782;SDS011;18351;47.560;9.708;2023-05-07T08:38:52;3.83;;;2.50;;
31782;SDS011;18351;47.560;9.708;2023-05-07T08:41:18;6.53;;;2.90;;
31782;SDS011;18351;47.560;9.708;2023-05-07T08:43:45;8.85;;;3.20;;
31782;SDS011;18351;47.560;9.708;2023-05-07T08:46:16;4.10;;;2.60;;
31782;SDS011;18351;47.560;9.708;2023-05-07T08:48:44;4.20;;;3.00;;
31782;SDS011;18351;47.560;9.708;2023-05-07T08:51:13;3.47;;;2.53;;
31782;SDS011;18351;47.560;9.708;2023-05-07T08:53:40;3.83;;;2.60;;
31782;SDS011;18351;47.560;9.708;2023-05-07T08:56:08;4.03;;;2.60;;
31782;SDS011;18351;47.560;9.708;2023-05-07T08:58:34;3.20;;;2.38;;
31782;SDS011;18351;47.560;9.708;2023-05-07T09:01:01;2.55;;;2.35;;
31782;SDS011;18351;47.560;9.708;2023-05-07T09:03:31;2.80;;;2.05;;
31782;SDS011;18351;47.560;9.708;2023-05-07T09:05:57;4.05;;;2.65;;
31782;SDS011;18351;47.560;9.708;2023-05-07T09:08:26;3.53;;;2.33;;
31782;SDS011;18351;47.560;9.708;2023-05-07T09:10:52;3.55;;;2.38;;
31782;SDS011;18351;47.560;9.708;2023-05-07T09:13:18;3.33;;;2.22;;
31782;SDS011;18351;47.560;9.708;2023-05-07T09:15:44;3.10;;;1.52;;
31782;SDS011;18351;47.560;9.708;2023-05-07T09:18:10;2.65;;;1.70;;
31782;SDS011;18351;47.560;9.708;2023-05-07T09:20:39;2.30;;;1.70;;
31782;SDS011;18351;47.560;9.708;2023-05-07T09:23:06;2.85;;;1.92;;
31782;SDS011;18351;47.560;9.708;2023-05-07T09:25:32;4.82;;;2.83;;
31782;SDS011;18351;47.560;9.708;2023-05-07T09:28:00;6.60;;;3.00;;
31782;SDS011;18351;47.560;9.708;2023-05-07T09:30:27;4.68;;;2.97;;
31782;SDS011;18351;47.560;9.708;2023-05-07T09:32:57;5.07;;;2.60;;
31782;SDS011;18351;47.560;9.708;2023-05-07T09:35:24;2.42;;;2.22;;
31782;SDS011;18351;47.560;9.708;2023-05-07T09:37:52;5.35;;;2.70;;
31782;SDS011;18351;47.560;9.708;2023-05-07T09:40:23;4.22;;;2.30;;
31782;SDS011;18351;47.560;9.708;2023-05-07T09:42:50;4.05;;;2.00;;
31782;SDS011;18351;47.560;9.708;2023-05-07T09:45:17;3.47;;;2.42;;
31782;SDS011;18351;47.560;9.708;2023-05-07T09:47:53;2.42;;;2.13;;
31782;SDS011;18351;47.560;9.708;2023-05-07T09:50:28;3.10;;;2.53;;
31782;SDS011;18351;47.560;9.708;2023-05-07T09:52:57;3.35;;;2.05;;
31782;SDS011;18351;47.560;9.708;2023-05-07T09:55:23;2.58;;;2.17;;
31782;SDS011;18351;47.560;9.708;2023-05-07T09:57:50;3.35;;;2.38;;
31782;SDS011;18351;47.560;9.708;2023-05-07T10:00:18;3.47;;;2.20;;
31782;SDS011;18351;47.560;9.708;2023-05-07T10:02:45;2.63;;;2.05;;
31782;SDS011;18351;47.560;9.708;2023-05-07T10:05:17;2.75;;;2.30;;
31782;SDS011;18351;47.560;9.708;2023-05-07T10:07:44;4.00;;;2.28;;
31782;SDS011;18351;47.560;9.708;2023-05-07T10:10:11;3.92;;;2.47;;
31782;SDS011;18351;47.560;9.708;2023-05-07T10:12:37;2.22;;;2.03;;
31782;SDS011;18351;47.560;9.708;2023-05-07T10:15:05;4.88;;;2.00;;
31782;SDS011;18351;47.560;9.708;2023-05-07T10:17:33;2.67;;;1.98;;
31782;SDS011;18351;47.560;9.708;2023-05-07T10:20:00;2.10;;;1.90;;
31782;SDS011;18351;47.560;9.708;2023-05-07T10:22:26;5.40;;;1.77;;
31782;SDS011;18351;47.560;9.708;2023-05-07T10:24:53;4.70;;;1.77;;
31782;SDS011;18351;47.560;9.708;2023-05-07T10:27:20;2.88;;;2.25;;
31782;SDS011;18351;47.560;9.708;2023-05-07T10:32:43;3.17;;;1.90;;
31782;SDS011;18351;47.560;9.708;2023-05-07T10:35:37;4.00;;;2.00;;
31782;SDS011;18351;47.560;9.708;2023-05-07T10:38:03;2.60;;;1.75;;
31782;SDS011;18351;47.560;9.708;2023-05-07T10:40:30;3.83;;;2.78;;
31782;SDS011;18351;47.560;9.708;2023-05-07T10:42:57;7.05;;;2.03;;
31782;SDS011;18351;47.560;9.708;2023-05-07T10:45:27;2.15;;;1.50;;
31782;SDS011;18351;47.560;9.708;2023-05-07T10:50:37;2.30;;;1.48;;
31782;SDS011;18351;47.560;9.708;2023-05-07T11:00:46;1.60;;;1.50;;
31782;SDS011;18351;47.560;9.708;2023-05-07T11:03:12;2.97;;;2.00;;
31782;SDS011;18351;47.560;9.708;2023-05-07T11:05:39;3.75;;;1.33;;
31782;SDS011;18351;47.560;9.708;2023-05-07T11:08:05;2.55;;;1.40;;
31782;SDS011;18351;47.560;9.708;2023-05-07T11:10:47;2.42;;;1.60;;
31782;SDS011;18351;47.560;9.708;2023-05-07T11:13:16;3.17;;;1.80;;
31782;SDS011;18351;47.560;9.708;2023-05-07T11:15:43;1.75;;;1.63;;
31782;SDS011;18351;47.560;9.708;2023-05-07T11:18:11;4.43;;;1.85;;
31782;SDS011;18351;47.560;9.708;2023-05-07T11:20:48;3.72;;;1.88;;
31782;SDS011;18351;47.560;9.708;2023-05-07T11:25:59;1.60;;;1.45;;
31782;SDS011;18351;47.560;9.708;2023-05-07T11:28:36;2.30;;;1.52;;
31782;SDS011;18351;47.560;9.708;2023-05-07T11:31:03;2.50;;;1.50;;
31782;SDS011;18351;47.560;9.708;2023-05-07T11:33:29;3.03;;;1.90;;
31782;SDS011;18351;47.560;9.708;2023-05-07T11:35:55;5.07;;;1.70;;
31782;SDS011;18351;47.560;9.708;2023-05-07T11:38:22;5.75;;;2.00;;
31782;SDS011;18351;47.560;9.708;2023-05-07T11:41:07;5.25;;;1.80;;
31782;SDS011;18351;47.560;9.708;2023-05-07T11:43:33;2.00;;;1.50;;
31782;SDS011;18351;47.560;9.708;2023-05-07T11:46:08;3.78;;;1.58;;
31782;SDS011;18351;47.560;9.708;2023-05-07T11:48:35;2.45;;;1.73;;
31782;SDS011;18351;47.560;9.708;2023-05-07T11:51:02;5.30;;;1.80;;
31782;SDS011;18351;47.560;9.708;2023-05-07T11:53:35;2.70;;;1.38;;
31782;SDS011;18351;47.560;9.708;2023-05-07T11:56:14;3.92;;;1.98;;
31782;SDS011;18351;47.560;9.708;2023-05-07T11:58:42;2.88;;;1.92;;
31782;SDS011;18351;47.560;9.708;2023-05-07T12:01:08;3.08;;;1.98;;
31782;SDS011;18351;47.560;9.708;2023-05-07T12:03:36;2.72;;;1.60;;
31782;SDS011;18351;47.560;9.708;2023-05-07T12:06:02;3.90;;;1.90;;
31782;SDS011;18351;47.560;9.708;2023-05-07T12:08:30;3.35;;;1.90;;
31782;SDS011;18351;47.560;9.708;2023-05-07T12:10:56;2.10;;;1.65;;
31782;SDS011;18351;47.560;9.708;2023-05-07T12:13:22;4.28;;;1.98;;
31782;SDS011;18351;47.560;9.708;2023-05-07T12:15:52;5.43;;;1.90;;
31782;SDS011;18351;47.560;9.708;2023-05-07T12:18:19;2.78;;;1.63;;
31782;SDS011;18351;47.560;9.708;2023-05-07T12:20:45;7.07;;;2.53;;
31782;SDS011;18351;47.560;9.708;2023-05-07T12:23:11;1.88;;;1.45;;
31782;SDS011;18351;47.560;9.708;2023-05-07T12:25:38;8.07;;;2.03;;
31782;SDS011;18351;47.560;9.708;2023-05-07T12:28:05;3.90;;;1.75;;
31782;SDS011;18351;47.560;9.708;2023-05-07T12:30:38;1.60;;;1.45;;
31782;SDS011;18351;47.560;9.708;2023-05-07T12:33:04;2.95;;;2.03;;
31782;SDS011;18351;47.560;9.708;2023-05-07T12:35:30;2.30;;;1.70;;
31782;SDS011;18351;47.560;9.708;2023-05-07T12:37:57;3.60;;;2.10;;
31782;SDS011;18351;47.560;9.708;2023-05-07T12:40:34;4.55;;;2.10;;
31782;SDS011;18351;47.560;9.708;2023-05-07T12:43:04;5.28;;;1.83;;
31782;SDS011;18351;47.560;9.708;2023-05-07T12:45:29;3.80;;;2.05;;
31782;SDS011;18351;47.560;9.708;2023-05-07T12:48:00;1.60;;;1.50;;
31782;SDS011;18351;47.560;9.708;2023-05-07T12:50:30;2.05;;;1.75;;
31782;SDS011;18351;47.560;9.708;2023-05-07T12:52:56;3.08;;;1.88;;
31782;SDS011;18351;47.560;9.708;2023-05-07T12:55:21;2.22;;;1.60;;
31782;SDS011;18351;47.560;9.708;2023-05-07T12:57:48;4.45;;;1.80;;
31782;SDS011;18351;47.560;9.708;2023-05-07T13:00:15;2.88;;;1.90;;
31782;SDS011;18351;47.560;9.708;2023-05-07T13:02:41;4.57;;;2.03;;
31782;SDS011;18351;47.560;9.708;2023-05-07T13:05:11;3.92;;;1.95;;
31782;SDS011;18351;47.560;9.708;2023-05-07T13:07:36;3.80;;;2.22;;
31782;SDS011;18351;47.560;9.708;2023-05-07T13:10:02;4.15;;;2.42;;
31782;SDS011;18351;47.560;9.708;2023-05-07T13:12:29;3.67;;;1.75;;
31782;SDS011;18351;47.560;9.708;2023-05-07T13:14:54;3.92;;;2.20;;
31782;SDS011;18351;47.560;9.708;2023-05-07T13:17:20;2.75;;;1.92;;
31782;SDS011;18351;47.560;9.708;2023-05-07T13:19:45;10.45;;;3.45;;
31782;SDS011;18351;47.560;9.708;2023-05-07T13:22:11;2.45;;;2.00;;
31782;SDS011;18351;47.560;9.708;2023-05-07T13:24:36;4.88;;;2.00;;
31782;SDS011;18351;47.560;9.708;2023-05-07T13:27:02;4.63;;;2.25;;
31782;SDS011;18351;47.560;9.708;2023-05-07T13:29:28;4.32;;;2.42;;
31782;SDS011;18351;47.560;9.708;2023-05-07T13:31:55;4.82;;;2.83;;
31782;SDS011;18351;47.560;9.708;2023-05-07T13:34:21;3.17;;;2.38;;
31782;SDS011;18351;47.560;9.708;2023-05-07T13:36:47;4.60;;;2.20;;
31782;SDS011;18351;47.560;9.708;2023-05-07T13:39:13;2.75;;;1.85;;
31782;SDS011;18351;47.560;9.708;2023-05-07T13:41:38;3.05;;;2.50;;
31782;SDS011;18351;47.560;9.708;2023-05-07T13:44:04;2.55;;;1.88;;
31782;SDS011;18351;47.560;9.708;2023-05-07T13:46:30;2.28;;;1.90;;
31782;SDS011;18351;47.560;9.708;2023-05-07T13:48:56;2.75;;;2.00;;
31782;SDS011;18351;47.560;9.708;2023-05-07T13:51:21;2.20;;;2.00;;
31782;SDS011;18351;47.560;9.708;2023-05-07T13:53:47;6.22;;;2.47;;
31782;SDS011;18351;47.560;9.708;2023-05-07T13:56:12;4.53;;;1.98;;
31782;SDS011;18351;47.560;9.708;2023-05-07T13:58:39;2.95;;;1.80;;
31782;SDS011;18351;47.560;9.708;2023-05-07T14:01:05;3.58;;;2.17;;
31782;SDS011;18351;47.560;9.708;2023-05-07T14:03:30;3.25;;;1.98;;
31782;SDS011;18351;47.560;9.708;2023-05-07T14:05:57;5.82;;;2.20;;
31782;SDS011;18351;47.560;9.708;2023-05-07T14:08:24;3.53;;;2.13;;
31782;SDS011;18351;47.560;9.708;2023-05-07T14:10:50;2.63;;;2.25;;
31782;SDS011;18351;47.560;9.708;2023-05-07T14:13:16;4.43;;;2.50;;
31782;SDS011;18351;47.560;9.708;2023-05-07T14:15:42;2.30;;;1.88;;
31782;SDS011;18351;47.560;9.708;2023-05-07T14:18:11;3.10;;;2.58;;
31782;SDS011;18351;47.560;9.708;2023-05-07T14:20:40;3.95;;;2.60;;
31782;SDS011;18351;47.560;9.708;2023-05-07T14:23:08;4.03;;;2.70;;
31782;SDS011;18351;47.560;9.708;2023-05-07T14:25:33;3.00;;;2.22;;
31782;SDS011;18351;47.560;9.708;2023-05-07T14:27:59;4.47;;;2.75;;
31782;SDS011;18351;47.560;9.708;2023-05-07T14:30:25;4.10;;;2.60;;
31782;SDS011;18351;47.560;9.708;2023-05-07T14:32:50;3.28;;;2.50;;
31782;SDS011;18351;47.560;9.708;2023-05-07T14:35:16;5.05;;;2.60;;
31782;SDS011;18351;47.560;9.708;2023-05-07T14:37:42;3.13;;;2.75;;
31782;SDS011;18351;47.560;9.708;2023-05-07T14:40:08;4.50;;;2.85;;
31782;SDS011;18351;47.560;9.708;2023-05-07T14:42:34;5.60;;;2.83;;
31782;SDS011;18351;47.560;9.708;2023-05-07T14:44:59;5.63;;;2.83;;
31782;SDS011;18351;47.560;9.708;2023-05-07T14:47:25;4.53;;;3.03;;
31782;SDS011;18351;47.560;9.708;2023-05-07T14:49:50;5.40;;;3.00;;
31782;SDS011;18351;47.560;9.708;2023-05-07T14:52:16;3.10;;;2.80;;
31782;SDS011;18351;47.560;9.708;2023-05-07T14:54:42;5.22;;;3.17;;
31782;SDS011;18351;47.560;9.708;2023-05-07T14:57:08;3.35;;;2.63;;
31782;SDS011;18351;47.560;9.708;2023-05-07T14:59:35;3.88;;;2.78;;